Latest Weather Observations for Laverton

IDW60801

Issued at 4:35 pm WST Saturday 22 November 2014 (issued every 30 minutes, with the page automatically refreshed every 10 minutes)

About weather observations | Map of weather stations | Latest weather observations for WA | Other Formats
Station Details ID: 012305 Name: LAVERTON AERO Lat: -28.61 Lon: 122.42 Height: 464.3 m
Data from the previous 72 hours. | See also: Recent months at Laverton
Date/Time
WST
Temp
°C
App
Temp
°C
Dew
Point
Rel
Hum
%
Delta-T
°C
Wind Press
QNH
hPa
Press
MSL
hPa
Rain
since 9 am
mm
Dir
 
Spd
km/h
Gust
km/h
Spd
kts
Gust
kts
22/04:30pm 33.5 28.4 4.2 16 15.7 SW 20 28 11 15 1008.8 1006.3 0.0
22/04:00pm 33.4 27.9 4.2 16 15.6 W 22 28 12 15 1009.0 1006.5 0.0
22/03:30pm 33.8 30.5 4.5 16 15.8 W 11 20 6 11 1009.0 1006.5 0.0
22/03:00pm 33.5 28.8 5.1 17 15.4 WSW 19 28 10 15 1009.3 1006.8 0.0
22/02:30pm 32.1 29.2 4.8 18 14.6 SSW 9 17 5 9 1009.7 1007.1 0.0
22/02:00pm 32.2 26.9 4.9 18 14.7 W 22 30 12 16 1010.1 1007.6 0.0
22/01:30pm 31.6 28.6 5.9 20 14.0 SSW 11 19 6 10 1010.5 1008.0 0.0
22/01:00pm 31.1 26.6 6.2 21 13.6 WNW 19 24 10 13 1010.9 1008.4 0.0
22/12:30pm 30.6 26.4 5.8 21 13.4 W 17 28 9 15 1011.1 1008.6 0.0
22/12:00pm 30.0 25.0 6.6 23 12.8 WSW 22 33 12 18 1011.4 1008.9 0.0
22/11:30am 30.3 27.5 6.9 23 12.9 SSW 11 17 6 9 1011.6 1009.1 0.0
22/11:00am 28.3 25.3 7.5 27 11.4 W 13 24 7 13 1012.3 1009.8 0.0
22/10:30am 27.9 25.4 8.2 29 10.9 SSW 11 19 6 10 1012.7 1010.2 0.0
22/10:00am 27.6 25.4 8.0 29 10.8 SSW 9 20 5 11 1012.9 1010.4 0.0
22/09:30am 27.4 24.5 8.3 30 10.6 SW 13 19 7 10 1013.1 1010.6 0.0
22/09:00am 25.7 23.2 8.2 33 9.6 S 11 20 6 11 1013.3 1010.8 0.0
22/08:30am 25.1 21.8 8.1 34 9.3 S 15 22 8 12 1013.3 1010.8 0.0
22/08:00am 24.5 20.8 8.0 35 9.0 S 17 22 9 12 1013.3 1010.8 0.0
22/07:30am 23.8 19.2 8.2 37 8.5 S 22 30 12 16 1013.3 1010.8 0.0
22/07:00am 23.4 18.1 8.3 38 8.2 S 26 33 14 18 1012.8 1010.3 0.0
22/06:30am 23.3 19.3 8.2 38 8.2 S 19 28 10 15 1012.3 1009.8 0.0
22/06:00am 21.7 20.9 6.4 37 7.9 CALM 0 6 0 3 1011.8 1009.3 0.0
22/05:30am 19.5 18.0 4.8 38 7.3 S 2 6 1 3 1011.5 1009.0 0.0
22/05:00am 18.4 15.9 3.5 37 7.2 S 6 7 3 4 1011.2 1008.7 0.0
22/04:30am 18.7 15.9 3.3 36 7.4 S 7 7 4 4 1010.8 1008.3 0.0
22/04:00am 18.5 15.9 3.2 36 7.3 SE 6 7 3 4 1010.5 1008.0 0.0
22/03:30am 18.7 16.0 2.9 35 7.5 SE 6 7 3 4 1010.3 1007.8 0.0
22/03:00am 18.9 16.0 2.7 34 7.7 SE 7 9 4 5 1010.1 1007.6 0.0
22/02:30am 19.4 16.4 2.3 32 8.1 S 7 9 4 5 1010.0 1007.4 0.0
22/02:00am 20.6 17.2 2.0 29 8.8 S 9 11 5 6 1009.9 1007.3 0.0
22/01:30am 19.0 16.9 2.0 32 7.9 S 2 6 1 3 1009.9 1007.3 0.0
22/01:00am 18.9 16.5 1.9 32 7.9 SSW 4 7 2 4 1009.9 1007.3 0.0
22/12:30am 20.0 17.9 1.9 30 8.5 S 2 6 1 3 1009.8 1007.2 0.0
22/12:00am 20.8 17.7 1.6 28 9.0 ESE 7 9 4 5 1009.9 1007.3 0.0
 
Date/Time
WST
Temp
°C
App
Temp
°C
Dew
Point
Rel
Hum
%
Delta-T
°C
Wind Press
QNH
hPa
Press
MSL
hPa
Rain
since 9 am
mm
Dir
 
Spd
km/h
Gust
km/h
Spd
kts
Gust
kts
21/11:30pm 21.4 19.7 1.6 27 9.4 CALM 0 0 0 0 1010.0 1007.4 0.0
21/11:00pm 22.7 20.9 1.1 24 10.2 CALM 0 0 0 0 1010.2 1007.7 0.0
21/10:30pm 24.8 22.1 0.3 20 11.6 S 4 7 2 4 1010.3 1007.8 0.0
21/10:00pm 25.8 22.7 1.2 20 11.9 S 7 9 4 5 1010.4 1007.9 0.0
21/09:30pm 26.8 23.4 2.0 20 12.3 S 9 11 5 6 1010.3 1007.8 0.0
21/09:00pm 27.9 23.8 2.2 19 12.9 SSW 13 17 7 9 1010.3 1007.8 0.0
21/08:30pm 28.5 24.5 2.7 19 13.1 SSW 13 17 7 9 1010.2 1007.7 0.0
21/08:00pm 29.6 24.7 2.0 17 13.9 SW 17 20 9 11 1010.0 1007.4 0.0
21/07:30pm 30.4 25.2 2.6 17 14.2 WSW 19 28 10 15 1009.7 1007.1 0.0
21/07:00pm 30.8 26.1 2.9 17 14.4 WSW 17 20 9 11 1009.4 1006.9 0.0
21/06:30pm 31.6 26.7 1.8 15 15.2 W 17 26 9 14 1009.0 1006.5 0.0
21/06:00pm 32.6 27.2 2.6 15 15.6 W 20 28 11 15 1008.8 1006.3 0.0
21/05:30pm 33.1 26.5 2.0 14 16.0 W 26 39 14 21 1008.6 1006.1 0.0
21/05:00pm 33.8 27.0 0.5 12 16.8 W 26 37 14 20 1008.4 1005.9 0.0
21/04:30pm 33.8 27.3 2.6 14 16.3 WSW 26 43 14 23 1008.2 1005.7 0.0
21/04:00pm 34.2 27.8 0.8 12 17.0 WNW 24 35 13 19 1008.1 1005.6 0.0
21/03:30pm 34.8 27.5 2.3 13 17.0 W 30 35 16 19 1008.1 1005.6 0.0
21/03:01pm 34.3 27.1 0.8 12 17.0 W 28 46 15 25 1008.4 1005.9 0.0
21/03:00pm 34.8 28.1 1.2 12 17.3 W 26 46 14 25 1008.3 1005.8 0.0
21/02:30pm 34.3 27.1 0.8 12 17.0 WNW 28 50 15 27 1008.6 1006.1 0.0
21/02:23pm 35.3 27.5 1.6 12 17.5 WNW 32 50 17 27 1008.5 1006.0 0.0
21/02:00pm 33.9 27.6 3.6 15 16.1 W 26 35 14 19 1008.8 1006.3 0.0
21/01:30pm 33.6 28.9 5.2 17 15.4 WSW 19 32 10 17 1009.2 1006.7 0.0
21/01:00pm 33.1 28.5 5.6 18 15.0 WSW 19 28 10 15 1009.8 1007.2 0.0
21/12:30pm 32.0 27.1 3.9 17 14.8 WNW 19 39 10 21 1010.3 1007.8 0.0
21/12:00pm 31.8 27.1 6.1 20 14.1 WSW 20 33 11 18 1010.6 1008.1 0.0
21/11:30am 31.2 26.4 5.6 20 13.8 W 20 30 11 16 1011.0 1008.5 0.0
21/11:00am 31.2 28.6 6.3 21 13.6 WNW 9 15 5 8 1011.4 1008.9 0.0
21/10:30am 29.6 27.6 6.9 24 12.4 S 7 15 4 8 1011.7 1009.2 0.0
21/10:00am 28.3 25.9 7.0 26 11.6 SW 9 19 5 10 1012.1 1009.6 0.0
21/09:30am 27.8 24.7 7.1 27 11.3 SSW 13 19 7 10 1012.3 1009.8 0.0
21/09:00am 26.6 23.6 7.6 30 10.4 S 13 20 7 11 1012.6 1010.1 0.0
21/08:30am 26.0 21.7 8.0 32 9.8 S 20 28 11 15 1012.7 1010.2 0.0
21/08:00am 24.5 19.8 7.6 34 9.1 S 22 28 12 15 1012.7 1010.2 0.0
21/07:30am 24.1 19.7 7.3 34 9.0 S 20 30 11 16 1012.4 1009.9 0.0
21/07:00am 23.6 18.7 6.8 34 8.9 S 22 32 12 17 1012.3 1009.8 0.0
21/06:30am 23.1 17.8 6.8 35 8.6 S 24 33 13 18 1012.0 1009.5 0.0
21/06:00am 22.5 17.9 6.3 35 8.4 S 20 28 11 15 1011.6 1009.1 0.0
21/05:30am 21.9 17.1 5.8 35 8.3 S 20 28 11 15 1011.2 1008.7 0.0
21/05:00am 21.7 17.1 5.6 35 8.2 S 19 22 10 12 1011.0 1008.5 0.0
21/04:30am 19.9 16.8 5.5 39 7.3 S 11 15 6 8 1010.7 1008.2 0.0
21/04:00am 17.6 16.4 4.5 42 6.4 CALM 0 0 0 0 1010.4 1007.9 0.0
21/03:30am 18.0 15.6 4.2 40 6.7 W 6 7 3 4 1010.2 1007.7 0.0
21/03:00am 18.1 15.1 4.3 40 6.7 N 9 11 5 6 1009.9 1007.3 0.0
21/02:30am 18.7 15.8 4.5 39 7.0 N 9 9 5 5 1009.5 1007.0 0.0
21/02:00am 18.7 16.3 5.2 41 6.7 N 7 9 4 5 1009.7 1007.1 0.0
21/01:30am 18.9 17.8 5.0 40 6.9 CALM 0 6 0 3 1009.8 1007.2 0.0
21/01:00am 19.7 18.7 5.4 39 7.2 CALM 0 0 0 0 1009.9 1007.3 0.0
21/12:30am 20.9 19.8 4.9 35 8.0 CALM 0 0 0 0 1010.1 1007.6 0.0
21/12:00am 20.7 18.3 5.1 36 7.9 NNE 7 7 4 4 1010.3 1007.8 0.0
 
Date/Time
WST
Temp
°C
App
Temp
°C
Dew
Point
Rel
Hum
%
Delta-T
°C
Wind Press
QNH
hPa
Press
MSL
hPa
Rain
since 9 am
mm
Dir
 
Spd
km/h
Gust
km/h
Spd
kts
Gust
kts
20/11:30pm 21.2 18.3 4.7 34 8.3 NNE 9 9 5 5 1010.7 1008.2 0.0
20/11:00pm 21.9 19.4 4.9 33 8.6 N 7 7 4 4 1011.1 1008.6 0.0
20/10:30pm 22.3 19.8 4.8 32 8.8 NNW 7 9 4 5 1011.2 1008.7 0.0
20/10:00pm 22.6 21.5 5.1 32 8.9 CALM 0 0 0 0 1011.5 1009.0 0.0
20/09:30pm 24.1 22.9 4.5 28 10.0 CALM 0 0 0 0 1011.6 1009.1 0.0
20/09:00pm 25.4 22.9 4.5 26 10.7 W 7 9 4 5 1011.6 1009.1 0.0
20/08:30pm 26.1 24.5 4.6 25 11.1 NW 2 9 1 5 1011.5 1009.0 0.0
20/08:00pm 26.7 24.2 4.5 24 11.5 N 7 9 4 5 1011.2 1008.7 0.0
20/07:30pm 27.9 24.9 4.2 22 12.3 N 9 11 5 6 1011.1 1008.6 0.0
20/07:00pm 29.2 26.2 3.9 20 13.2 N 9 11 5 6 1010.8 1008.3 0.0
20/06:30pm 30.9 26.9 3.0 17 14.4 NNW 13 17 7 9 1010.7 1008.2 0.0
20/06:00pm 31.7 27.7 2.8 16 15.0 NW 13 19 7 10 1010.5 1008.0 0.0
20/05:30pm 32.2 27.5 3.2 16 15.1 WNW 17 26 9 14 1010.4 1007.9 0.0
20/05:00pm 32.9 28.3 3.8 16 15.4 W 17 24 9 13 1010.3 1007.8 0.0
20/04:30pm 32.5 27.5 3.5 16 15.2 W 19 28 10 15 1010.2 1007.7 0.0
20/04:00pm 32.8 29.1 4.6 17 15.1 W 13 19 7 10 1010.3 1007.8 0.0
20/03:30pm 32.7 28.8 5.3 18 14.8 NW 15 24 8 13 1010.5 1008.0 0.0
20/03:00pm 32.1 28.5 4.8 18 14.6 WNW 13 24 7 13 1010.7 1008.2 0.0
20/02:30pm 32.5 29.1 5.9 19 14.5 NW 13 35 7 19 1010.9 1008.4 0.0
20/02:00pm 31.8 28.4 6.1 20 14.1 WNW 13 24 7 13 1011.4 1008.9 0.0
20/01:30pm 31.4 28.1 6.5 21 13.7 WSW 13 24 7 13 1011.8 1009.3 0.0
20/01:00pm 30.3 28.3 6.9 23 12.9 NW 7 13 4 7 1012.2 1009.7 0.0
20/12:30pm 29.4 27.1 7.3 25 12.2 SSW 9 22 5 12 1012.7 1010.2 0.0
20/12:00pm 29.2 26.1 7.2 25 12.1 N 13 20 7 11 1013.3 1010.8 0.0
20/11:30am 29.0 26.1 8.1 27 11.6 W 13 35 7 19 1013.9 1011.5 0.0
20/11:00am 28.7 26.4 8.9 29 11.1 NE 11 20 6 11 1014.5 1012.0 0.0
20/10:30am 28.1 25.5 9.4 31 10.6 N 13 20 7 11 1015.0 1012.5 0.0
20/10:00am 26.4 24.0 8.8 33 9.8 N 11 22 6 12 1015.5 1013.0 0.0
20/09:30am 26.3 25.2 10.5 37 9.0 NW 7 19 4 10 1015.8 1013.4 0.0
20/09:00am 25.1 23.4 11.3 42 7.9 NE 11 19 6 10 1015.9 1013.5 0.6
20/08:30am 24.6 23.2 14.4 53 6.2 ENE 15 22 8 12 1016.0 1013.6 0.6
20/08:00am 23.3 21.1 14.8 59 5.1 NE 20 26 11 14 1016.0 1013.6 0.6
20/07:30am 22.0 19.4 14.9 64 4.3 NE 22 28 12 15 1015.8 1013.4 0.6
20/07:00am 21.0 18.1 15.1 69 3.6 ENE 24 30 13 16 1015.7 1013.2 0.6
20/06:30am 19.5 16.6 15.0 75 2.7 ENE 24 32 13 17 1015.5 1013.0 0.6
20/06:00am 18.5 15.2 15.0 80 2.1 E 26 33 14 18 1014.9 1012.4 0.6
20/05:30am 17.4 14.4 14.9 85 1.5 ENE 24 32 13 17 1014.7 1012.2 0.6
20/05:00am 17.0 13.9 14.6 86 1.4 E 24 30 13 16 1014.5 1012.0 0.6
20/04:30am 16.9 14.1 14.4 85 1.5 E 22 28 12 15 1014.3 1011.8 0.6
20/04:00am 17.2 14.3 14.1 82 1.8 E 22 28 12 15 1014.2 1011.7 0.6
20/03:30am 17.6 14.7 13.9 79 2.2 E 22 28 12 15 1014.0 1011.6 0.6
20/03:00am 18.0 14.9 13.5 75 2.6 E 22 28 12 15 1014.0 1011.6 0.6
20/02:30am 18.3 15.4 13.0 71 3.0 E 20 26 11 14 1013.9 1011.5 0.6
20/02:00am 18.7 15.7 12.5 67 3.5 E 20 26 11 14 1013.9 1011.5 0.6
20/01:30am 19.3 16.3 12.1 63 4.1 E 19 24 10 13 1014.2 1011.7 0.6
20/01:00am 19.3 18.0 12.6 65 3.8 E 11 17 6 9 1014.2 1011.7 0.6
20/12:30am 19.7 18.7 12.2 62 4.3 SE 9 13 5 7 1014.4 1011.9 0.6
20/12:00am 19.6 18.0 11.6 60 4.5 SSE 11 13 6 7 1014.4 1011.9 0.6
 
Date/Time
WST
Temp
°C
App
Temp
°C
Dew
Point
Rel
Hum
%
Delta-T
°C
Wind Press
QNH
hPa
Press
MSL
hPa
Rain
since 9 am
mm
Dir
 
Spd
km/h
Gust
km/h
Spd
kts
Gust
kts
19/11:30pm 19.9 18.7 11.7 59 4.6 S 9 11 5 6 1014.2 1011.7 0.6
19/11:00pm 21.3 20.3 11.1 52 5.7 S 7 9 4 5 1014.2 1011.7 0.6
19/10:30pm 22.1 19.8 10.6 48 6.5 SSW 13 15 7 8 1014.3 1011.8 0.6
19/10:00pm 22.9 20.1 10.0 44 7.2 SSW 15 19 8 10 1014.2 1011.7 0.6
19/09:30pm 23.0 21.0 11.4 48 6.6 SSW 13 15 7 8 1013.9 1011.5 0.6
19/09:00pm 22.4 21.6 14.0 59 5.0 S 11 13 6 7 1013.7 1011.2 0.6
19/08:30pm 22.7 21.3 13.5 56 5.4 S 13 15 7 8 1013.5 1011.0 0.6
19/08:00pm 23.6 22.1 13.2 52 6.1 S 13 15 7 8 1013.2 1010.7 0.6
19/07:30pm 24.3 21.4 12.3 47 7.0 SSW 19 24 10 13 1012.5 1010.0 0.6
19/07:00pm 23.6 23.1 13.8 54 5.9 S 9 9 5 5 1012.2 1009.7 0.6
19/06:30pm 22.8 22.9 14.4 59 5.0 SSE 7 9 4 5 1011.1 1008.6 0.6
19/06:00pm 22.9 19.3 14.2 58 5.2 WSW 26 41 14 22 1011.4 1008.9 0.6
19/05:51pm 24.6 20.6 14.1 52 6.3 WSW 28 41 15 22 1011.6 1009.1 0.6
19/05:30pm 29.1 25.8 8.2 27 11.7 S 15 22 8 12 1010.1 1007.6 0.0
19/05:00pm 29.4 26.1 7.9 26 12.0 SSW 15 22 8 12 1010.0 1007.4 0.0

Other Formats:

Comma delimited format used in spreadsheet applications
http://www.bom.gov.au/fwo/IDW60801/IDW60801.94449.axf

JavaScript Object Notation format (JSON) in row-major order
http://www.bom.gov.au/fwo/IDW60801/IDW60801.94449.json